sensor_id;sensor_type;location;lat;lon;timestamp;temperature;humidity
28530;DHT22;15737;49.760;6.632;2022-07-15T00:01:52;17.30;68.60
28530;DHT22;15737;49.760;6.632;2022-07-15T00:04:18;17.20;68.80
28530;DHT22;15737;49.760;6.632;2022-07-15T00:06:43;17.10;69.00
28530;DHT22;15737;49.760;6.632;2022-07-15T00:09:09;17.10;69.20
28530;DHT22;15737;49.760;6.632;2022-07-15T00:11:34;17.10;69.20
28530;DHT22;15737;49.760;6.632;2022-07-15T00:14:01;17.10;69.00
28530;DHT22;15737;49.760;6.632;2022-07-15T00:16:26;17.10;68.90
28530;DHT22;15737;49.760;6.632;2022-07-15T00:18:52;17.00;69.00
28530;DHT22;15737;49.760;6.632;2022-07-15T00:21:17;17.00;68.90
28530;DHT22;15737;49.760;6.632;2022-07-15T00:23:43;17.00;68.80
28530;DHT22;15737;49.760;6.632;2022-07-15T00:26:09;17.00;68.50
28530;DHT22;15737;49.760;6.632;2022-07-15T00:28:35;17.10;68.30
28530;DHT22;15737;49.760;6.632;2022-07-15T00:31:01;17.00;68.30
28530;DHT22;15737;49.760;6.632;2022-07-15T00:33:26;17.00;68.50
28530;DHT22;15737;49.760;6.632;2022-07-15T00:35:52;16.80;68.70
28530;DHT22;15737;49.760;6.632;2022-07-15T00:38:17;16.80;69.10
28530;DHT22;15737;49.760;6.632;2022-07-15T00:40:46;16.70;69.10
28530;DHT22;15737;49.760;6.632;2022-07-15T00:43:12;16.50;70.30
28530;DHT22;15737;49.760;6.632;2022-07-15T00:45:37;16.20;71.70
28530;DHT22;15737;49.760;6.632;2022-07-15T00:48:03;16.00;72.90
28530;DHT22;15737;49.760;6.632;2022-07-15T00:50:30;15.90;73.00
28530;DHT22;15737;49.760;6.632;2022-07-15T00:53:07;15.90;73.10
28530;DHT22;15737;49.760;6.632;2022-07-15T00:55:37;16.00;73.10
28530;DHT22;15737;49.760;6.632;2022-07-15T00:58:04;16.00;73.10
28530;DHT22;15737;49.760;6.632;2022-07-15T01:00:30;15.80;73.30
28530;DHT22;15737;49.760;6.632;2022-07-15T01:02:59;15.80;73.30
28530;DHT22;15737;49.760;6.632;2022-07-15T01:05:26;15.70;73.40
28530;DHT22;15737;49.760;6.632;2022-07-15T01:07:52;15.60;73.70
28530;DHT22;15737;49.760;6.632;2022-07-15T01:10:19;15.40;74.00
28530;DHT22;15737;49.760;6.632;2022-07-15T01:12:49;15.30;74.70
28530;DHT22;15737;49.760;6.632;2022-07-15T01:15:16;15.30;75.30
28530;DHT22;15737;49.760;6.632;2022-07-15T01:17:43;15.30;75.90
28530;DHT22;15737;49.760;6.632;2022-07-15T01:20:10;15.30;76.50
28530;DHT22;15737;49.760;6.632;2022-07-15T01:22:36;15.20;76.80
28530;DHT22;15737;49.760;6.632;2022-07-15T01:25:01;15.10;77.00
28530;DHT22;15737;49.760;6.632;2022-07-15T01:27:27;15.10;77.60
28530;DHT22;15737;49.760;6.632;2022-07-15T01:29:53;15.10;77.50
28530;DHT22;15737;49.760;6.632;2022-07-15T01:32:18;15.20;77.90
28530;DHT22;15737;49.760;6.632;2022-07-15T01:34:44;15.20;78.00
28530;DHT22;15737;49.760;6.632;2022-07-15T01:37:14;15.20;78.30
28530;DHT22;15737;49.760;6.632;2022-07-15T01:39:40;15.20;78.10
28530;DHT22;15737;49.760;6.632;2022-07-15T01:42:05;15.20;78.20
28530;DHT22;15737;49.760;6.632;2022-07-15T01:44:31;15.10;78.10
28530;DHT22;15737;49.760;6.632;2022-07-15T01:46:56;15.10;78.70
28530;DHT22;15737;49.760;6.632;2022-07-15T01:49:22;15.00;79.20
28530;DHT22;15737;49.760;6.632;2022-07-15T01:51:49;14.90;79.20
28530;DHT22;15737;49.760;6.632;2022-07-15T01:54:15;14.90;79.40
28530;DHT22;15737;49.760;6.632;2022-07-15T01:56:41;14.90;79.70
28530;DHT22;15737;49.760;6.632;2022-07-15T01:59:06;14.80;79.80
28530;DHT22;15737;49.760;6.632;2022-07-15T02:01:32;14.90;80.00
28530;DHT22;15737;49.760;6.632;2022-07-15T02:03:58;14.90;79.80
28530;DHT22;15737;49.760;6.632;2022-07-15T02:06:23;14.90;79.50
28530;DHT22;15737;49.760;6.632;2022-07-15T02:08:49;14.90;79.40
28530;DHT22;15737;49.760;6.632;2022-07-15T02:11:14;14.80;79.50
28530;DHT22;15737;49.760;6.632;2022-07-15T02:13:40;14.70;79.80
28530;DHT22;15737;49.760;6.632;2022-07-15T02:16:06;14.50;80.30
28530;DHT22;15737;49.760;6.632;2022-07-15T02:18:31;14.40;80.70
28530;DHT22;15737;49.760;6.632;2022-07-15T02:20:57;14.40;81.20
28530;DHT22;15737;49.760;6.632;2022-07-15T02:23:23;14.30;81.10
28530;DHT22;15737;49.760;6.632;2022-07-15T02:25:49;14.30;81.80
28530;DHT22;15737;49.760;6.632;2022-07-15T02:28:15;14.10;82.40
28530;DHT22;15737;49.760;6.632;2022-07-15T02:30:42;14.10;83.20
28530;DHT22;15737;49.760;6.632;2022-07-15T02:33:09;14.00;83.70
28530;DHT22;15737;49.760;6.632;2022-07-15T02:35:35;14.00;84.40
28530;DHT22;15737;49.760;6.632;2022-07-15T02:38:01;14.00;85.10
28530;DHT22;15737;49.760;6.632;2022-07-15T02:40:28;13.90;85.80
28530;DHT22;15737;49.760;6.632;2022-07-15T02:42:59;13.90;86.60
28530;DHT22;15737;49.760;6.632;2022-07-15T02:48:00;13.80;87.80
28530;DHT22;15737;49.760;6.632;2022-07-15T02:50:26;13.90;88.30
28530;DHT22;15737;49.760;6.632;2022-07-15T02:52:51;13.90;88.40
28530;DHT22;15737;49.760;6.632;2022-07-15T02:55:17;14.00;88.40
28530;DHT22;15737;49.760;6.632;2022-07-15T02:57:43;14.00;88.40
28530;DHT22;15737;49.760;6.632;2022-07-15T03:00:11;14.10;88.50
28530;DHT22;15737;49.760;6.632;2022-07-15T03:02:37;14.10;88.40
28530;DHT22;15737;49.760;6.632;2022-07-15T03:05:04;14.10;88.40
28530;DHT22;15737;49.760;6.632;2022-07-15T03:07:30;14.20;88.20
28530;DHT22;15737;49.760;6.632;2022-07-15T03:09:56;14.20;87.90
28530;DHT22;15737;49.760;6.632;2022-07-15T03:12:22;14.20;87.90
28530;DHT22;15737;49.760;6.632;2022-07-15T03:14:47;14.30;88.00
28530;DHT22;15737;49.760;6.632;2022-07-15T03:17:13;14.20;88.20
28530;DHT22;15737;49.760;6.632;2022-07-15T03:19:39;14.20;88.60
28530;DHT22;15737;49.760;6.632;2022-07-15T03:22:05;14.20;89.00
28530;DHT22;15737;49.760;6.632;2022-07-15T03:24:31;14.10;89.10
28530;DHT22;15737;49.760;6.632;2022-07-15T03:26:57;14.10;89.30
28530;DHT22;15737;49.760;6.632;2022-07-15T03:29:22;14.00;89.70
28530;DHT22;15737;49.760;6.632;2022-07-15T03:31:48;14.00;90.00
28530;DHT22;15737;49.760;6.632;2022-07-15T03:34:14;14.10;90.10
28530;DHT22;15737;49.760;6.632;2022-07-15T03:36:40;14.20;90.10
28530;DHT22;15737;49.760;6.632;2022-07-15T03:39:06;14.20;90.00
28530;DHT22;15737;49.760;6.632;2022-07-15T03:41:32;14.30;90.00
28530;DHT22;15737;49.760;6.632;2022-07-15T03:43:59;14.20;90.00
28530;DHT22;15737;49.760;6.632;2022-07-15T03:46:25;14.10;90.20
28530;DHT22;15737;49.760;6.632;2022-07-15T03:48:51;14.00;90.50
28530;DHT22;15737;49.760;6.632;2022-07-15T03:51:16;14.00;90.80
28530;DHT22;15737;49.760;6.632;2022-07-15T03:53:42;13.90;90.90
28530;DHT22;15737;49.760;6.632;2022-07-15T03:56:08;13.90;91.00
28530;DHT22;15737;49.760;6.632;2022-07-15T03:58:34;13.90;91.20
28530;DHT22;15737;49.760;6.632;2022-07-15T04:00:59;13.90;91.30
28530;DHT22;15737;49.760;6.632;2022-07-15T04:03:25;13.90;91.80
28530;DHT22;15737;49.760;6.632;2022-07-15T04:05:51;13.90;91.90
28530;DHT22;15737;49.760;6.632;2022-07-15T04:08:17;14.00;91.50
28530;DHT22;15737;49.760;6.632;2022-07-15T04:10:42;14.10;91.40
28530;DHT22;15737;49.760;6.632;2022-07-15T04:13:08;14.30;91.20
28530;DHT22;15737;49.760;6.632;2022-07-15T04:15:34;14.30;91.10
28530;DHT22;15737;49.760;6.632;2022-07-15T04:18:00;14.40;91.20
28530;DHT22;15737;49.760;6.632;2022-07-15T04:20:26;14.50;91.10
28530;DHT22;15737;49.760;6.632;2022-07-15T04:22:52;14.60;90.90
28530;DHT22;15737;49.760;6.632;2022-07-15T04:25:19;14.80;90.60
28530;DHT22;15737;49.760;6.632;2022-07-15T04:27:46;15.00;90.10
28530;DHT22;15737;49.760;6.632;2022-07-15T04:30:13;15.20;89.40
28530;DHT22;15737;49.760;6.632;2022-07-15T04:32:39;15.40;88.70
28530;DHT22;15737;49.760;6.632;2022-07-15T04:35:05;15.60;87.60
28530;DHT22;15737;49.760;6.632;2022-07-15T04:37:31;15.90;86.40
28530;DHT22;15737;49.760;6.632;2022-07-15T04:39:56;16.30;85.10
28530;DHT22;15737;49.760;6.632;2022-07-15T04:42:22;16.70;83.30
28530;DHT22;15737;49.760;6.632;2022-07-15T04:44:48;17.10;81.60
28530;DHT22;15737;49.760;6.632;2022-07-15T04:47:14;17.60;79.50
28530;DHT22;15737;49.760;6.632;2022-07-15T04:49:40;17.90;77.70
28530;DHT22;15737;49.760;6.632;2022-07-15T04:52:24;18.00;76.90
28530;DHT22;15737;49.760;6.632;2022-07-15T04:54:51;18.20;75.80
28530;DHT22;15737;49.760;6.632;2022-07-15T04:57:17;18.70;74.60
28530;DHT22;15737;49.760;6.632;2022-07-15T04:59:42;19.20;72.50
28530;DHT22;15737;49.760;6.632;2022-07-15T05:02:08;19.90;70.40
28530;DHT22;15737;49.760;6.632;2022-07-15T05:04:33;20.60;68.30
28530;DHT22;15737;49.760;6.632;2022-07-15T05:06:59;20.90;66.70
28530;DHT22;15737;49.760;6.632;2022-07-15T05:09:24;21.20;65.80
28530;DHT22;15737;49.760;6.632;2022-07-15T05:11:50;21.50;64.40
28530;DHT22;15737;49.760;6.632;2022-07-15T05:14:15;21.80;62.80
28530;DHT22;15737;49.760;6.632;2022-07-15T05:16:41;22.20;61.80
28530;DHT22;15737;49.760;6.632;2022-07-15T05:19:06;22.40;60.80
28530;DHT22;15737;49.760;6.632;2022-07-15T05:24:01;22.90;59.40
28530;DHT22;15737;49.760;6.632;2022-07-15T05:26:26;23.40;58.30
28530;DHT22;15737;49.760;6.632;2022-07-15T05:28:52;24.10;56.90
28530;DHT22;15737;49.760;6.632;2022-07-15T05:31:17;24.80;55.50
28530;DHT22;15737;49.760;6.632;2022-07-15T05:33:43;25.40;54.30
28530;DHT22;15737;49.760;6.632;2022-07-15T05:36:13;25.70;53.40
28530;DHT22;15737;49.760;6.632;2022-07-15T05:38:40;26.00;52.80
28530;DHT22;15737;49.760;6.632;2022-07-15T05:41:18;26.40;51.90
28530;DHT22;15737;49.760;6.632;2022-07-15T05:43:43;26.60;51.10
28530;DHT22;15737;49.760;6.632;2022-07-15T05:46:12;26.60;51.00
28530;DHT22;15737;49.760;6.632;2022-07-15T05:48:37;26.50;50.90
28530;DHT22;15737;49.760;6.632;2022-07-15T05:51:05;26.50;50.70
28530;DHT22;15737;49.760;6.632;2022-07-15T05:53:32;26.80;50.20
28530;DHT22;15737;49.760;6.632;2022-07-15T05:55:58;27.40;49.00
28530;DHT22;15737;49.760;6.632;2022-07-15T05:58:24;27.70;48.40
28530;DHT22;15737;49.760;6.632;2022-07-15T06:00:53;27.40;48.60
28530;DHT22;15737;49.760;6.632;2022-07-15T06:03:18;27.70;48.20
28530;DHT22;15737;49.760;6.632;2022-07-15T06:05:44;28.00;47.70
28530;DHT22;15737;49.760;6.632;2022-07-15T06:08:10;28.40;46.80
28530;DHT22;15737;49.760;6.632;2022-07-15T06:10:36;28.40;46.70
28530;DHT22;15737;49.760;6.632;2022-07-15T06:13:03;27.30;48.00
28530;DHT22;15737;49.760;6.632;2022-07-15T06:15:29;26.80;48.90
28530;DHT22;15737;49.760;6.632;2022-07-15T06:17:55;27.90;47.30
28530;DHT22;15737;49.760;6.632;2022-07-15T06:20:21;29.20;45.50
28530;DHT22;15737;49.760;6.632;2022-07-15T06:22:49;30.10;43.90
28530;DHT22;15737;49.760;6.632;2022-07-15T06:25:15;30.60;42.90
28530;DHT22;15737;49.760;6.632;2022-07-15T06:27:40;30.40;42.90
28530;DHT22;15737;49.760;6.632;2022-07-15T06:30:07;30.00;43.40
28530;DHT22;15737;49.760;6.632;2022-07-15T06:32:33;30.60;42.90
28530;DHT22;15737;49.760;6.632;2022-07-15T06:34:58;31.30;41.80
28530;DHT22;15737;49.760;6.632;2022-07-15T06:37:25;31.70;41.30
28530;DHT22;15737;49.760;6.632;2022-07-15T06:39:50;32.80;40.00
28530;DHT22;15737;49.760;6.632;2022-07-15T06:42:18;34.00;38.40
28530;DHT22;15737;49.760;6.632;2022-07-15T06:44:43;35.00;37.20
28530;DHT22;15737;49.760;6.632;2022-07-15T06:47:09;35.90;36.20
28530;DHT22;15737;49.760;6.632;2022-07-15T06:49:35;36.30;35.80
28530;DHT22;15737;49.760;6.632;2022-07-15T06:52:01;36.50;35.60
28530;DHT22;15737;49.760;6.632;2022-07-15T06:54:27;37.50;34.60
28530;DHT22;15737;49.760;6.632;2022-07-15T06:56:52;38.20;33.90
28530;DHT22;15737;49.760;6.632;2022-07-15T06:59:18;38.30;33.40
28530;DHT22;15737;49.760;6.632;2022-07-15T07:01:44;38.80;33.20
28530;DHT22;15737;49.760;6.632;2022-07-15T07:04:09;39.20;32.70
28530;DHT22;15737;49.760;6.632;2022-07-15T07:06:35;39.20;32.90
28530;DHT22;15737;49.760;6.632;2022-07-15T07:09:00;39.30;32.40
28530;DHT22;15737;49.760;6.632;2022-07-15T07:11:26;38.60;33.20
28530;DHT22;15737;49.760;6.632;2022-07-15T07:13:52;38.90;32.60
28530;DHT22;15737;49.760;6.632;2022-07-15T07:16:18;37.70;33.20
28530;DHT22;15737;49.760;6.632;2022-07-15T07:18:44;36.70;34.20
28530;DHT22;15737;49.760;6.632;2022-07-15T07:21:15;35.90;35.20
28530;DHT22;15737;49.760;6.632;2022-07-15T07:26:12;34.20;37.20
28530;DHT22;15737;49.760;6.632;2022-07-15T07:28:38;34.10;37.20
28530;DHT22;15737;49.760;6.632;2022-07-15T07:31:09;33.80;37.50
28530;DHT22;15737;49.760;6.632;2022-07-15T07:33:35;34.00;37.30
28530;DHT22;15737;49.760;6.632;2022-07-15T07:36:02;35.30;35.70
28530;DHT22;15737;49.760;6.632;2022-07-15T07:38:28;35.50;35.60
28530;DHT22;15737;49.760;6.632;2022-07-15T07:40:54;34.80;35.60
28530;DHT22;15737;49.760;6.632;2022-07-15T07:43:19;35.20;35.20
28530;DHT22;15737;49.760;6.632;2022-07-15T07:45:49;35.90;34.60
28530;DHT22;15737;49.760;6.632;2022-07-15T07:48:16;36.40;34.40
28530;DHT22;15737;49.760;6.632;2022-07-15T07:50:44;37.30;33.50
28530;DHT22;15737;49.760;6.632;2022-07-15T07:53:10;36.80;34.10
28530;DHT22;15737;49.760;6.632;2022-07-15T07:55:38;36.40;34.50
28530;DHT22;15737;49.760;6.632;2022-07-15T07:58:04;35.50;35.10
28530;DHT22;15737;49.760;6.632;2022-07-15T08:00:31;35.70;34.90
28530;DHT22;15737;49.760;6.632;2022-07-15T08:02:59;36.70;33.80
28530;DHT22;15737;49.760;6.632;2022-07-15T08:05:33;37.10;33.10
28530;DHT22;15737;49.760;6.632;2022-07-15T08:08:17;37.90;32.00
28530;DHT22;15737;49.760;6.632;2022-07-15T08:10:45;38.50;31.50
28530;DHT22;15737;49.760;6.632;2022-07-15T08:13:11;38.20;31.70
28530;DHT22;15737;49.760;6.632;2022-07-15T08:15:44;35.40;34.90
28530;DHT22;15737;49.760;6.632;2022-07-15T08:18:19;34.50;36.60
28530;DHT22;15737;49.760;6.632;2022-07-15T08:20:46;35.90;35.10
28530;DHT22;15737;49.760;6.632;2022-07-15T08:23:12;34.50;36.70
28530;DHT22;15737;49.760;6.632;2022-07-15T08:25:47;35.70;35.30
28530;DHT22;15737;49.760;6.632;2022-07-15T08:28:17;37.20;33.00
28530;DHT22;15737;49.760;6.632;2022-07-15T08:30:44;37.80;32.40
28530;DHT22;15737;49.760;6.632;2022-07-15T08:33:10;37.90;32.60
28530;DHT22;15737;49.760;6.632;2022-07-15T08:35:35;35.60;34.80
28530;DHT22;15737;49.760;6.632;2022-07-15T08:38:05;33.40;37.40
28530;DHT22;15737;49.760;6.632;2022-07-15T08:40:32;32.80;38.20
28530;DHT22;15737;49.760;6.632;2022-07-15T08:42:58;34.00;36.70
28530;DHT22;15737;49.760;6.632;2022-07-15T08:45:23;34.60;35.90
28530;DHT22;15737;49.760;6.632;2022-07-15T08:47:51;37.60;32.30
28530;DHT22;15737;49.760;6.632;2022-07-15T08:50:18;39.60;30.30
28530;DHT22;15737;49.760;6.632;2022-07-15T08:52:45;40.10;29.90
28530;DHT22;15737;49.760;6.632;2022-07-15T09:00:18;40.80;29.70
28530;DHT22;15737;49.760;6.632;2022-07-15T09:02:44;42.30;28.60
28530;DHT22;15737;49.760;6.632;2022-07-15T09:07:55;43.50;27.50
28530;DHT22;15737;49.760;6.632;2022-07-15T09:10:46;41.80;28.30
28530;DHT22;15737;49.760;6.632;2022-07-15T09:16:03;37.50;30.00
28530;DHT22;15737;49.760;6.632;2022-07-15T09:18:41;38.10;29.50
28530;DHT22;15737;49.760;6.632;2022-07-15T09:21:21;37.60;29.80
28530;DHT22;15737;49.760;6.632;2022-07-15T09:23:48;38.50;29.20
28530;DHT22;15737;49.760;6.632;2022-07-15T09:26:27;40.10;28.30
28530;DHT22;15737;49.760;6.632;2022-07-15T09:28:54;41.20;27.60
28530;DHT22;15737;49.760;6.632;2022-07-15T09:31:34;38.20;29.70
28530;DHT22;15737;49.760;6.632;2022-07-15T09:34:23;34.50;33.20
28530;DHT22;15737;49.760;6.632;2022-07-15T09:36:50;32.30;35.70
28530;DHT22;15737;49.760;6.632;2022-07-15T09:39:18;31.10;37.00
28530;DHT22;15737;49.760;6.632;2022-07-15T09:41:45;29.80;38.50
28530;DHT22;15737;49.760;6.632;2022-07-15T09:44:16;29.10;38.90
28530;DHT22;15737;49.760;6.632;2022-07-15T09:49:33;28.90;39.70
28530;DHT22;15737;49.760;6.632;2022-07-15T09:52:07;31.50;35.80
28530;DHT22;15737;49.760;6.632;2022-07-15T09:54:39;33.30;33.30
28530;DHT22;15737;49.760;6.632;2022-07-15T09:57:10;35.10;31.40
28530;DHT22;15737;49.760;6.632;2022-07-15T10:02:03;31.80;34.00
28530;DHT22;15737;49.760;6.632;2022-07-15T10:04:29;28.60;38.60
28530;DHT22;15737;49.760;6.632;2022-07-15T10:06:57;26.70;41.20
28530;DHT22;15737;49.760;6.632;2022-07-15T10:09:27;25.50;42.90
28530;DHT22;15737;49.760;6.632;2022-07-15T10:11:56;24.70;44.40
28530;DHT22;15737;49.760;6.632;2022-07-15T10:14:29;25.60;43.40
28530;DHT22;15737;49.760;6.632;2022-07-15T10:28:17;37.40;30.10
28530;DHT22;15737;49.760;6.632;2022-07-15T10:30:45;38.10;29.70
28530;DHT22;15737;49.760;6.632;2022-07-15T10:33:15;35.90;31.50
28530;DHT22;15737;49.760;6.632;2022-07-15T10:35:49;33.80;31.60
28530;DHT22;15737;49.760;6.632;2022-07-15T10:43:43;27.20;38.80
28530;DHT22;15737;49.760;6.632;2022-07-15T10:56:55;32.60;34.00
28530;DHT22;15737;49.760;6.632;2022-07-15T10:59:23;34.30;32.20
28530;DHT22;15737;49.760;6.632;2022-07-15T11:04:28;35.90;31.10
28530;DHT22;15737;49.760;6.632;2022-07-15T11:15:14;38.00;29.30
28530;DHT22;15737;49.760;6.632;2022-07-15T11:17:45;37.70;29.70
28530;DHT22;15737;49.760;6.632;2022-07-15T11:20:24;38.00;29.50
28530;DHT22;15737;49.760;6.632;2022-07-15T11:22:53;38.20;29.30
28530;DHT22;15737;49.760;6.632;2022-07-15T11:30:48;35.60;29.70
28530;DHT22;15737;49.760;6.632;2022-07-15T11:33:23;33.70;30.60
28530;DHT22;15737;49.760;6.632;2022-07-15T11:35:56;32.70;32.20
28530;DHT22;15737;49.760;6.632;2022-07-15T11:38:24;32.60;32.80
28530;DHT22;15737;49.760;6.632;2022-07-15T11:40:54;32.50;32.80
28530;DHT22;15737;49.760;6.632;2022-07-15T11:43:39;33.00;32.50
28530;DHT22;15737;49.760;6.632;2022-07-15T11:46:25;33.20;32.20
28530;DHT22;15737;49.760;6.632;2022-07-15T11:48:52;33.00;32.30
28530;DHT22;15737;49.760;6.632;2022-07-15T11:51:24;32.90;32.70
28530;DHT22;15737;49.760;6.632;2022-07-15T11:53:49;33.40;32.30
28530;DHT22;15737;49.760;6.632;2022-07-15T11:56:16;34.40;31.70
28530;DHT22;15737;49.760;6.632;2022-07-15T11:58:44;35.00;31.10
28530;DHT22;15737;49.760;6.632;2022-07-15T12:01:15;35.10;30.70
28530;DHT22;15737;49.760;6.632;2022-07-15T12:06:22;34.20;30.60
28530;DHT22;15737;49.760;6.632;2022-07-15T12:08:53;34.40;30.30
28530;DHT22;15737;49.760;6.632;2022-07-15T12:11:28;34.40;30.50
28530;DHT22;15737;49.760;6.632;2022-07-15T12:14:04;34.90;30.70
28530;DHT22;15737;49.760;6.632;2022-07-15T12:16:42;35.40;30.40
28530;DHT22;15737;49.760;6.632;2022-07-15T12:19:17;35.90;30.00
28530;DHT22;15737;49.760;6.632;2022-07-15T12:21:51;35.90;30.00
28530;DHT22;15737;49.760;6.632;2022-07-15T12:24:22;36.60;29.90
28530;DHT22;15737;49.760;6.632;2022-07-15T12:29:21;35.50;30.70
28530;DHT22;15737;49.760;6.632;2022-07-15T12:31:58;35.00;30.80
28530;DHT22;15737;49.760;6.632;2022-07-15T12:35:00;34.20;31.40
28530;DHT22;15737;49.760;6.632;2022-07-15T12:42:57;34.90;29.70
28530;DHT22;15737;49.760;6.632;2022-07-15T12:45:27;34.50;30.60
28530;DHT22;15737;49.760;6.632;2022-07-15T12:48:06;34.60;30.20
28530;DHT22;15737;49.760;6.632;2022-07-15T12:53:25;30.50;33.40
28530;DHT22;15737;49.760;6.632;2022-07-15T12:55:58;30.50;33.40
28530;DHT22;15737;49.760;6.632;2022-07-15T12:58:30;30.60;33.10
28530;DHT22;15737;49.760;6.632;2022-07-15T13:01:08;30.80;33.20
28530;DHT22;15737;49.760;6.632;2022-07-15T13:03:34;31.90;32.90
28530;DHT22;15737;49.760;6.632;2022-07-15T13:06:00;33.00;32.10
28530;DHT22;15737;49.760;6.632;2022-07-15T13:08:28;33.60;31.20
28530;DHT22;15737;49.760;6.632;2022-07-15T13:10:57;33.40;31.40
28530;DHT22;15737;49.760;6.632;2022-07-15T13:13:26;33.00;31.80
28530;DHT22;15737;49.760;6.632;2022-07-15T13:15:52;33.00;31.80
28530;DHT22;15737;49.760;6.632;2022-07-15T13:18:18;33.30;31.90
28530;DHT22;15737;49.760;6.632;2022-07-15T13:20:45;33.50;31.40
28530;DHT22;15737;49.760;6.632;2022-07-15T13:23:11;33.40;31.50
28530;DHT22;15737;49.760;6.632;2022-07-15T13:25:38;33.90;31.10
28530;DHT22;15737;49.760;6.632;2022-07-15T13:28:07;33.80;30.40
28530;DHT22;15737;49.760;6.632;2022-07-15T13:30:33;33.20;31.10
28530;DHT22;15737;49.760;6.632;2022-07-15T13:32:59;33.40;31.30
28530;DHT22;15737;49.760;6.632;2022-07-15T13:35:25;33.70;30.90
28530;DHT22;15737;49.760;6.632;2022-07-15T13:37:51;33.70;31.00
28530;DHT22;15737;49.760;6.632;2022-07-15T13:40:17;32.70;31.50
28530;DHT22;15737;49.760;6.632;2022-07-15T13:42:42;31.80;32.50
28530;DHT22;15737;49.760;6.632;2022-07-15T13:45:09;32.10;32.00
28530;DHT22;15737;49.760;6.632;2022-07-15T13:47:35;30.90;31.70
28530;DHT22;15737;49.760;6.632;2022-07-15T13:50:01;29.60;33.10
28530;DHT22;15737;49.760;6.632;2022-07-15T13:52:47;29.50;33.00
28530;DHT22;15737;49.760;6.632;2022-07-15T13:55:14;29.80;33.10
28530;DHT22;15737;49.760;6.632;2022-07-15T13:57:41;29.50;33.30
28530;DHT22;15737;49.760;6.632;2022-07-15T14:00:09;29.30;33.90
28530;DHT22;15737;49.760;6.632;2022-07-15T14:02:39;30.30;33.90
28530;DHT22;15737;49.760;6.632;2022-07-15T14:05:07;31.10;32.50
28530;DHT22;15737;49.760;6.632;2022-07-15T14:07:33;31.60;31.90
28530;DHT22;15737;49.760;6.632;2022-07-15T14:09:59;31.90;31.80
28530;DHT22;15737;49.760;6.632;2022-07-15T14:12:25;32.10;31.50
28530;DHT22;15737;49.760;6.632;2022-07-15T14:14:50;32.50;31.30
28530;DHT22;15737;49.760;6.632;2022-07-15T14:17:16;32.20;30.90
28530;DHT22;15737;49.760;6.632;2022-07-15T14:19:42;32.00;31.50
28530;DHT22;15737;49.760;6.632;2022-07-15T14:22:07;32.50;31.40
28530;DHT22;15737;49.760;6.632;2022-07-15T14:24:33;32.90;31.20
28530;DHT22;15737;49.760;6.632;2022-07-15T14:26:58;33.50;30.90
28530;DHT22;15737;49.760;6.632;2022-07-15T14:29:24;33.20;30.60
28530;DHT22;15737;49.760;6.632;2022-07-15T14:31:51;32.40;31.00
28530;DHT22;15737;49.760;6.632;2022-07-15T14:34:17;32.00;31.70
28530;DHT22;15737;49.760;6.632;2022-07-15T14:36:42;32.30;31.70
28530;DHT22;15737;49.760;6.632;2022-07-15T14:39:08;32.40;31.70
28530;DHT22;15737;49.760;6.632;2022-07-15T14:41:34;32.70;31.40
28530;DHT22;15737;49.760;6.632;2022-07-15T14:44:00;32.30;31.50
28530;DHT22;15737;49.760;6.632;2022-07-15T14:46:25;32.20;31.60
28530;DHT22;15737;49.760;6.632;2022-07-15T14:48:51;31.90;31.40
28530;DHT22;15737;49.760;6.632;2022-07-15T14:51:16;31.60;31.80
28530;DHT22;15737;49.760;6.632;2022-07-15T14:53:42;31.70;31.80
28530;DHT22;15737;49.760;6.632;2022-07-15T14:56:08;31.30;31.90
28530;DHT22;15737;49.760;6.632;2022-07-15T14:58:33;31.40;32.00
28530;DHT22;15737;49.760;6.632;2022-07-15T15:00:59;31.40;31.20
28530;DHT22;15737;49.760;6.632;2022-07-15T15:03:24;31.00;31.20
28530;DHT22;15737;49.760;6.632;2022-07-15T15:05:50;30.70;31.50
28530;DHT22;15737;49.760;6.632;2022-07-15T15:08:16;30.60;31.60
28530;DHT22;15737;49.760;6.632;2022-07-15T15:10:41;30.70;31.90
28530;DHT22;15737;49.760;6.632;2022-07-15T15:13:08;30.90;31.90
28530;DHT22;15737;49.760;6.632;2022-07-15T15:15:34;30.80;32.00
28530;DHT22;15737;49.760;6.632;2022-07-15T15:18:00;30.70;32.00
28530;DHT22;15737;49.760;6.632;2022-07-15T15:20:25;30.70;32.00
28530;DHT22;15737;49.760;6.632;2022-07-15T15:22:51;30.50;32.30
28530;DHT22;15737;49.760;6.632;2022-07-15T15:25:16;30.70;32.10
28530;DHT22;15737;49.760;6.632;2022-07-15T15:28:02;30.80;32.00
28530;DHT22;15737;49.760;6.632;2022-07-15T15:30:28;30.60;31.60
28530;DHT22;15737;49.760;6.632;2022-07-15T15:32:53;30.50;31.90
28530;DHT22;15737;49.760;6.632;2022-07-15T15:35:20;30.60;32.10
28530;DHT22;15737;49.760;6.632;2022-07-15T15:37:45;30.80;31.90
28530;DHT22;15737;49.760;6.632;2022-07-15T15:40:11;30.70;32.00
28530;DHT22;15737;49.760;6.632;2022-07-15T15:42:36;30.60;32.10
28530;DHT22;15737;49.760;6.632;2022-07-15T15:45:02;30.70;32.20
28530;DHT22;15737;49.760;6.632;2022-07-15T15:47:28;30.50;32.10
28530;DHT22;15737;49.760;6.632;2022-07-15T15:49:53;29.90;32.40
28530;DHT22;15737;49.760;6.632;2022-07-15T15:52:19;29.60;32.90
28530;DHT22;15737;49.760;6.632;2022-07-15T15:54:44;29.70;32.90
28530;DHT22;15737;49.760;6.632;2022-07-15T15:57:10;29.50;32.70
28530;DHT22;15737;49.760;6.632;2022-07-15T15:59:35;29.60;32.50
28530;DHT22;15737;49.760;6.632;2022-07-15T16:02:03;30.00;32.50
28530;DHT22;15737;49.760;6.632;2022-07-15T16:04:29;29.90;32.40
28530;DHT22;15737;49.760;6.632;2022-07-15T16:06:55;29.60;32.60
28530;DHT22;15737;49.760;6.632;2022-07-15T16:09:20;29.40;33.20
28530;DHT22;15737;49.760;6.632;2022-07-15T16:11:47;29.40;33.10
28530;DHT22;15737;49.760;6.632;2022-07-15T16:14:12;29.20;33.30
28530;DHT22;15737;49.760;6.632;2022-07-15T16:16:38;29.40;33.00
28530;DHT22;15737;49.760;6.632;2022-07-15T16:19:04;29.30;33.00
28530;DHT22;15737;49.760;6.632;2022-07-15T16:21:29;29.20;33.20
28530;DHT22;15737;49.760;6.632;2022-07-15T16:24:13;29.50;33.10
28530;DHT22;15737;49.760;6.632;2022-07-15T16:26:39;30.20;32.60
28530;DHT22;15737;49.760;6.632;2022-07-15T16:29:05;30.50;32.20
28530;DHT22;15737;49.760;6.632;2022-07-15T16:31:30;30.90;32.10
28530;DHT22;15737;49.760;6.632;2022-07-15T16:33:56;30.80;32.00
28530;DHT22;15737;49.760;6.632;2022-07-15T16:36:21;30.20;32.50
28530;DHT22;15737;49.760;6.632;2022-07-15T16:38:47;29.90;32.90
28530;DHT22;15737;49.760;6.632;2022-07-15T16:41:13;29.50;33.30
28530;DHT22;15737;49.760;6.632;2022-07-15T16:43:38;29.70;33.50
28530;DHT22;15737;49.760;6.632;2022-07-15T16:46:04;30.10;33.30
28530;DHT22;15737;49.760;6.632;2022-07-15T16:48:29;30.50;33.60
28530;DHT22;15737;49.760;6.632;2022-07-15T16:50:55;30.40;32.70
28530;DHT22;15737;49.760;6.632;2022-07-15T16:53:20;30.00;33.20